createdAt,value
2022-11-02T00:00:10.765Z,361
2022-11-02T00:01:10.356Z,354
2022-11-02T00:02:09.608Z,363
2022-11-02T00:03:09.762Z,360
2022-11-02T00:04:09.942Z,365
2022-11-02T00:05:09.843Z,367
2022-11-02T00:06:09.531Z,357
2022-11-02T00:08:10.022Z,348
2022-11-02T00:09:09.770Z,358
2022-11-02T00:10:09.994Z,361
2022-11-02T00:12:10.405Z,347
2022-11-02T00:13:10.098Z,351
2022-11-02T00:14:10.115Z,369
2022-11-02T00:15:10.358Z,370
2022-11-02T00:16:09.715Z,362
2022-11-02T00:17:09.863Z,351
2022-11-02T00:18:09.960Z,357
2022-11-02T00:19:10.198Z,356
2022-11-02T00:20:09.802Z,355
2022-11-02T00:22:10.059Z,360
2022-11-02T00:23:10.358Z,371
2022-11-02T00:24:09.724Z,364
2022-11-02T00:25:09.977Z,360
2022-11-02T00:26:10.096Z,344
2022-11-02T00:27:10.283Z,354
2022-11-02T00:28:09.454Z,359
2022-11-02T00:29:10.458Z,347
2022-11-02T00:30:09.900Z,356
2022-11-02T00:31:10.289Z,357
2022-11-02T00:32:10.537Z,352
2022-11-02T00:33:09.691Z,366
2022-11-02T00:34:09.640Z,363
2022-11-02T00:35:09.802Z,352
2022-11-02T00:36:09.740Z,351
2022-11-02T00:37:09.521Z,352
2022-11-02T00:38:09.320Z,357
2022-11-02T00:39:10.241Z,366
2022-11-02T00:40:10.284Z,359
2022-11-02T00:41:10.517Z,358
2022-11-02T00:42:09.579Z,353
2022-11-02T00:43:10.533Z,351
2022-11-02T00:44:09.687Z,352
2022-11-02T00:45:09.520Z,362
2022-11-02T00:46:09.464Z,365
2022-11-02T00:47:10.411Z,373
2022-11-02T00:48:09.705Z,365
2022-11-02T00:49:09.675Z,355
2022-11-02T00:50:09.514Z,352
2022-11-02T00:51:10.381Z,357
2022-11-02T00:52:10.174Z,355
2022-11-02T00:53:10.214Z,365
2022-11-02T00:55:10.059Z,362
2022-11-02T00:56:09.806Z,366
2022-11-02T00:57:09.643Z,363
2022-11-02T00:58:10.396Z,354
2022-11-02T00:59:10.091Z,355
2022-11-02T01:00:10.670Z,348
2022-11-02T01:01:11.563Z,360
2022-11-02T01:02:10.257Z,357
2022-11-02T01:03:10.087Z,358
2022-11-02T01:04:10.117Z,365
2022-11-02T01:05:10.184Z,371
2022-11-02T01:06:10.308Z,370
2022-11-02T01:07:10.472Z,365
2022-11-02T01:08:09.751Z,359
2022-11-02T01:10:10.346Z,361
2022-11-02T01:11:09.506Z,365
2022-11-02T01:12:10.431Z,366
2022-11-02T01:13:10.427Z,355
2022-11-02T01:15:09.820Z,356
2022-11-02T01:16:09.834Z,354
2022-11-02T01:17:09.828Z,357
2022-11-02T01:18:09.807Z,351
2022-11-02T01:19:09.766Z,358
2022-11-02T01:20:10.146Z,357
2022-11-02T01:21:31.913Z,363
2022-11-02T01:22:10.004Z,353
2022-11-02T01:23:09.967Z,354
2022-11-02T01:24:09.803Z,355
2022-11-02T01:25:10.100Z,360
2022-11-02T01:26:09.979Z,353
2022-11-02T01:27:09.690Z,355
2022-11-02T01:29:09.949Z,351
2022-11-02T01:30:09.886Z,349
2022-11-02T01:31:09.605Z,354
2022-11-02T01:32:10.496Z,351
2022-11-02T01:33:09.613Z,352
2022-11-02T01:34:10.431Z,360
2022-11-02T01:35:10.493Z,355
2022-11-02T01:36:10.506Z,350
2022-11-02T01:37:09.908Z,356
2022-11-02T01:38:09.827Z,353
2022-11-02T01:39:10.218Z,357
2022-11-02T01:40:09.873Z,349
2022-11-02T01:41:09.654Z,357
2022-11-02T01:42:10.090Z,356
2022-11-02T01:43:09.601Z,362
2022-11-02T01:44:09.557Z,366
2022-11-02T01:45:09.387Z,364
2022-11-02T01:46:10.079Z,355
2022-11-02T01:47:09.657Z,350
2022-11-02T01:48:09.509Z,356
2022-11-02T01:49:10.524Z,344
2022-11-02T01:50:10.508Z,342
2022-11-02T01:52:10.213Z,352
2022-11-02T01:53:09.928Z,364
2022-11-02T01:54:09.729Z,361
2022-11-02T01:55:09.769Z,356
2022-11-02T01:56:09.720Z,359
2022-11-02T01:57:09.620Z,360
2022-11-02T01:59:10.104Z,358
2022-11-02T02:00:10.624Z,359
2022-11-02T02:01:10.111Z,358
2022-11-02T02:02:10.492Z,361
2022-11-02T02:03:09.909Z,366
2022-11-02T02:04:10.058Z,369
2022-11-02T02:05:10.686Z,370
2022-11-02T02:06:10.255Z,365
2022-11-02T02:07:10.220Z,362
2022-11-02T02:08:09.535Z,363
2022-11-02T02:09:09.323Z,354
2022-11-02T02:10:09.417Z,348
2022-11-02T02:11:10.076Z,340
2022-11-02T02:12:10.027Z,342
2022-11-02T02:13:10.090Z,337
2022-11-02T02:14:10.211Z,378
2022-11-02T02:15:10.476Z,372
2022-11-02T02:16:09.428Z,361
2022-11-02T02:17:09.620Z,349
2022-11-02T02:18:09.603Z,360
2022-11-02T02:19:09.689Z,362
2022-11-02T02:20:09.585Z,367
2022-11-02T02:21:09.578Z,373
2022-11-02T02:22:09.395Z,369
2022-11-02T02:23:10.197Z,364
2022-11-02T02:24:10.304Z,360
2022-11-02T02:25:10.176Z,368
2022-11-02T02:27:10.235Z,358
2022-11-02T02:28:10.159Z,357
2022-11-02T02:29:10.134Z,361
2022-11-02T02:30:10.455Z,358
2022-11-02T02:31:09.536Z,354
2022-11-02T02:32:09.526Z,342
2022-11-02T02:33:10.504Z,386
2022-11-02T02:34:09.539Z,374
2022-11-02T02:35:09.639Z,367
2022-11-02T02:36:09.642Z,366
2022-11-02T02:37:09.573Z,359
2022-11-02T02:38:09.545Z,352
2022-11-02T02:39:10.261Z,358
2022-11-02T02:40:10.455Z,356
2022-11-02T02:41:09.671Z,357
2022-11-02T02:42:09.802Z,360
2022-11-02T02:43:09.723Z,357
2022-11-02T02:44:09.688Z,355
2022-11-02T02:45:09.915Z,362
2022-11-02T02:46:09.862Z,344
2022-11-02T02:47:09.737Z,346
2022-11-02T02:48:09.876Z,348
2022-11-02T02:49:09.573Z,353
2022-11-02T02:51:09.486Z,343
2022-11-02T02:52:10.301Z,384
2022-11-02T02:53:09.855Z,351
2022-11-02T02:55:09.844Z,346
2022-11-02T02:56:09.768Z,351
2022-11-02T02:57:09.733Z,366
2022-11-02T02:58:09.676Z,360
2022-11-02T02:59:10.336Z,345
2022-11-02T03:00:10.568Z,348
2022-11-02T03:01:09.983Z,361
2022-11-02T03:02:10.344Z,356
2022-11-02T03:03:09.718Z,357
2022-11-02T03:04:09.605Z,348
2022-11-02T03:05:09.676Z,353
2022-11-02T03:06:09.538Z,355
2022-11-02T03:07:09.401Z,358
2022-11-02T03:08:10.090Z,362
2022-11-02T03:09:10.285Z,355
2022-11-02T03:10:10.263Z,356
2022-11-02T03:11:10.030Z,351
2022-11-02T03:12:10.055Z,341
2022-11-02T03:13:10.119Z,356
2022-11-02T03:14:10.329Z,354
2022-11-02T03:15:10.624Z,358
2022-11-02T03:16:10.027Z,367
2022-11-02T03:17:10.140Z,375
2022-11-02T03:18:10.243Z,373
2022-11-02T03:19:09.986Z,369
2022-11-02T03:20:09.958Z,362
2022-11-02T03:21:09.907Z,366
2022-11-02T03:22:09.825Z,370
2022-11-02T03:23:09.519Z,360
2022-11-02T03:24:10.227Z,355
2022-11-02T03:25:10.251Z,361
2022-11-02T03:26:09.988Z,367
2022-11-02T03:27:09.788Z,355
2022-11-02T03:28:09.953Z,359
2022-11-02T03:29:09.703Z,363
2022-11-02T03:30:10.093Z,361
2022-11-02T03:31:10.281Z,356
2022-11-02T03:32:10.100Z,354
2022-11-02T03:33:09.602Z,349
2022-11-02T03:34:09.344Z,342
2022-11-02T03:35:10.014Z,355
2022-11-02T03:36:09.709Z,357
2022-11-02T03:38:09.503Z,354
2022-11-02T03:39:09.684Z,356
2022-11-02T03:40:09.283Z,353
2022-11-02T03:41:09.889Z,367
2022-11-02T03:42:09.466Z,361
2022-11-02T03:43:09.792Z,351
2022-11-02T03:44:09.493Z,355
2022-11-02T03:45:09.862Z,368
2022-11-02T03:46:09.595Z,365
2022-11-02T03:47:10.037Z,360
2022-11-02T03:48:09.790Z,358
2022-11-02T03:49:10.053Z,365
2022-11-02T03:50:09.800Z,364
2022-11-02T03:51:09.485Z,363
2022-11-02T03:52:09.843Z,362
2022-11-02T03:53:09.582Z,364
2022-11-02T03:54:10.469Z,363
2022-11-02T03:55:09.394Z,365
2022-11-02T03:56:09.984Z,369
2022-11-02T03:58:09.504Z,366
2022-11-02T03:59:10.167Z,368
2022-11-02T04:00:10.586Z,365
2022-11-02T04:01:09.910Z,361
2022-11-02T04:02:09.877Z,363
2022-11-02T04:03:10.216Z,353
2022-11-02T04:04:09.883Z,347
2022-11-02T04:05:10.175Z,361
2022-11-02T04:06:10.121Z,359
2022-11-02T04:08:10.032Z,350
2022-11-02T04:09:09.967Z,359
2022-11-02T04:10:10.193Z,371
2022-11-02T04:11:10.291Z,369
2022-11-02T04:12:10.276Z,360
2022-11-02T04:13:10.402Z,361
2022-11-02T04:14:10.473Z,364
2022-11-02T04:15:10.000Z,369
2022-11-02T04:16:09.973Z,370
2022-11-02T04:17:09.841Z,369
2022-11-02T04:18:10.147Z,366
2022-11-02T04:20:09.840Z,367
2022-11-02T04:21:09.994Z,366
2022-11-02T04:22:09.644Z,362
2022-11-02T04:23:10.233Z,364
2022-11-02T04:25:11.979Z,359
2022-11-02T04:25:13.856Z,359
2022-11-02T04:26:10.517Z,361
2022-11-02T04:27:09.952Z,369
2022-11-02T04:28:10.245Z,366
2022-11-02T04:29:10.042Z,365
2022-11-02T04:30:10.354Z,356
2022-11-02T04:31:10.350Z,361
2022-11-02T04:32:10.487Z,365
2022-11-02T04:33:10.334Z,359
2022-11-02T04:34:10.418Z,365
2022-11-02T04:35:10.704Z,359
2022-11-02T04:36:09.880Z,361
2022-11-02T04:37:10.132Z,360
2022-11-02T04:38:10.250Z,354
2022-11-02T04:39:10.609Z,352
2022-11-02T04:40:09.840Z,356
2022-11-02T04:41:10.342Z,357
2022-11-02T04:43:10.451Z,349
2022-11-02T04:44:10.487Z,357
2022-11-02T04:45:10.330Z,358
2022-11-02T04:46:09.656Z,353
2022-11-02T04:47:09.580Z,346
2022-11-02T04:48:09.515Z,356
2022-11-02T04:49:09.495Z,352
2022-11-02T04:50:10.564Z,344
2022-11-02T04:51:09.417Z,362
2022-11-02T04:53:10.425Z,358
2022-11-02T04:54:10.606Z,357
2022-11-02T04:55:09.985Z,350
2022-11-02T04:56:10.039Z,354
2022-11-02T04:57:10.192Z,362
2022-11-02T04:58:10.219Z,363
2022-11-02T04:59:10.433Z,361
2022-11-02T05:00:10.477Z,355
2022-11-02T05:01:10.150Z,361
2022-11-02T05:02:09.677Z,362
2022-11-02T05:03:12.328Z,359
2022-11-02T05:04:09.848Z,350
2022-11-02T05:05:09.764Z,342
2022-11-02T05:06:10.110Z,344
2022-11-02T05:07:10.064Z,349
2022-11-02T05:08:10.465Z,356
2022-11-02T05:09:09.867Z,363
2022-11-02T05:10:09.964Z,355
2022-11-02T05:11:10.095Z,368
2022-11-02T05:12:10.428Z,372
2022-11-02T05:13:09.811Z,370
2022-11-02T05:14:09.950Z,366
2022-11-02T05:15:10.534Z,365
2022-11-02T05:16:10.001Z,358
2022-11-02T05:17:10.001Z,367
2022-11-02T05:18:13.606Z,363
2022-11-02T05:19:11.097Z,370
2022-11-02T05:20:10.632Z,368
2022-11-02T05:21:09.653Z,370
2022-11-02T05:22:09.669Z,371
2022-11-02T05:23:09.788Z,369
2022-11-02T05:24:09.919Z,361
2022-11-02T05:25:10.254Z,360
2022-11-02T05:26:10.562Z,352
2022-11-02T05:27:10.609Z,358
2022-11-02T05:29:10.036Z,349
2022-11-02T05:30:10.573Z,348
2022-11-02T05:31:09.663Z,360
2022-11-02T05:32:09.730Z,373
2022-11-02T05:33:09.804Z,380
2022-11-02T05:34:09.958Z,364
2022-11-02T05:35:09.602Z,365
2022-11-02T05:36:09.838Z,372
2022-11-02T05:37:09.940Z,359
2022-11-02T05:38:09.902Z,355
2022-11-02T05:40:10.568Z,358
2022-11-02T05:41:09.600Z,359
2022-11-02T05:42:09.734Z,371
2022-11-02T05:43:10.360Z,369
2022-11-02T05:44:10.469Z,371
2022-11-02T05:45:10.523Z,370
2022-11-02T05:46:10.114Z,359
2022-11-02T05:47:09.601Z,363
2022-11-02T05:48:09.754Z,354
2022-11-02T05:49:23.883Z,374
2022-11-02T05:50:09.558Z,372
2022-11-02T05:51:09.728Z,375
2022-11-02T05:52:09.702Z,367
2022-11-02T05:53:09.685Z,365
2022-11-02T05:54:10.329Z,371
2022-11-02T05:55:10.567Z,362
2022-11-02T05:56:09.955Z,361
2022-11-02T05:57:10.320Z,369
2022-11-02T05:58:10.246Z,363
2022-11-02T05:59:10.234Z,365
2022-11-02T06:00:10.757Z,360
2022-11-02T06:01:10.481Z,361
2022-11-02T06:02:09.850Z,372
2022-11-02T06:03:10.196Z,366
2022-11-02T06:04:10.580Z,361
2022-11-02T06:05:10.075Z,357
2022-11-02T06:06:10.876Z,359
2022-11-02T06:07:29.273Z,357
2022-11-02T06:08:10.555Z,358
2022-11-02T06:09:10.391Z,364
2022-11-02T06:10:10.364Z,354
2022-11-02T06:11:09.561Z,367
2022-11-02T06:12:10.117Z,357
2022-11-02T06:13:10.127Z,356
2022-11-02T06:14:09.757Z,358
2022-11-02T06:15:09.801Z,356
2022-11-02T06:18:10.438Z,353
2022-11-02T06:19:10.335Z,345
2022-11-02T06:21:09.695Z,364
2022-11-02T06:22:09.584Z,369
2022-11-02T06:23:10.161Z,357
2022-11-02T06:24:10.421Z,348
2022-11-02T06:25:10.785Z,352
2022-11-02T06:26:09.834Z,359
2022-11-02T06:27:09.801Z,352
2022-11-02T06:28:10.212Z,383
2022-11-02T06:29:09.899Z,367
2022-11-02T06:30:10.135Z,352
2022-11-02T06:31:10.360Z,357
2022-11-02T06:32:09.634Z,352
2022-11-02T06:33:10.169Z,353
2022-11-02T06:34:10.371Z,356
2022-11-02T06:35:11.051Z,367
2022-11-02T06:36:10.280Z,365
2022-11-02T06:37:10.352Z,357
2022-11-02T06:38:10.424Z,352
2022-11-02T06:39:10.550Z,359
2022-11-02T06:40:09.969Z,368
2022-11-02T06:41:10.192Z,365
2022-11-02T06:44:09.971Z,360
2022-11-02T06:45:10.246Z,355
2022-11-02T06:46:10.582Z,354
2022-11-02T06:47:09.731Z,334
2022-11-02T06:48:09.723Z,368
2022-11-02T06:49:10.054Z,363
2022-11-02T06:50:10.391Z,369
2022-11-02T06:51:09.892Z,373
2022-11-02T06:52:09.940Z,359
2022-11-02T06:53:10.288Z,362
2022-11-02T06:54:10.355Z,351
2022-11-02T06:55:10.555Z,356
2022-11-02T06:56:09.905Z,352
2022-11-02T06:57:09.952Z,353
2022-11-02T06:58:09.878Z,355
2022-11-02T06:59:09.627Z,366
2022-11-02T07:01:10.030Z,370
2022-11-02T07:02:10.240Z,372
2022-11-02T07:03:10.439Z,360
2022-11-02T07:04:10.452Z,354
2022-11-02T07:05:10.557Z,358
2022-11-02T07:06:13.692Z,367
2022-11-02T07:07:10.568Z,368
2022-11-02T07:08:09.787Z,384
2022-11-02T07:09:09.591Z,350
2022-11-02T07:10:09.775Z,357
2022-11-02T07:11:09.596Z,364
2022-11-02T07:13:10.372Z,363
2022-11-02T07:14:10.270Z,371
2022-11-02T07:15:09.954Z,370
2022-11-02T07:16:09.916Z,367
2022-11-02T07:17:10.022Z,368
2022-11-02T07:18:10.099Z,350
2022-11-02T07:19:10.179Z,352
2022-11-02T07:20:10.387Z,363
2022-11-02T07:21:10.489Z,376
2022-11-02T07:22:09.996Z,360
2022-11-02T07:23:10.323Z,350
2022-11-02T07:24:09.837Z,360
2022-11-02T07:25:09.905Z,359
2022-11-02T07:26:10.138Z,371
2022-11-02T07:27:10.358Z,373
2022-11-02T07:28:09.633Z,364
2022-11-02T07:29:10.679Z,359
2022-11-02T07:30:10.043Z,358
2022-11-02T07:31:10.464Z,352
2022-11-02T07:32:09.617Z,360
2022-11-02T07:33:09.896Z,357
2022-11-02T07:35:10.272Z,352
2022-11-02T07:36:10.478Z,353
2022-11-02T07:37:10.546Z,354
2022-11-02T07:38:09.637Z,358
2022-11-02T07:39:09.736Z,362
2022-11-02T07:40:10.060Z,361
2022-11-02T07:41:10.288Z,366
2022-11-02T07:42:09.664Z,371
2022-11-02T07:43:10.293Z,362
2022-11-02T07:44:10.008Z,359
2022-11-02T07:45:10.054Z,355
2022-11-02T07:46:10.340Z,369
2022-11-02T07:47:10.566Z,340
2022-11-02T07:48:09.945Z,349
2022-11-02T07:49:10.162Z,362
2022-11-02T07:50:10.354Z,358
2022-11-02T07:51:10.182Z,360
2022-11-02T07:52:10.412Z,357
2022-11-02T07:53:10.366Z,358
2022-11-02T07:54:10.585Z,343
2022-11-02T07:55:10.204Z,352
2022-11-02T07:56:10.425Z,360
2022-11-02T07:57:09.799Z,364
2022-11-02T07:58:10.475Z,360
2022-11-02T07:59:10.340Z,358
2022-11-02T08:00:15.869Z,356
2022-11-02T08:01:10.186Z,362
2022-11-02T08:03:11.297Z,356
2022-11-02T08:04:18.148Z,362
2022-11-02T08:06:10.678Z,360
2022-11-02T08:07:09.633Z,356
2022-11-02T08:08:24.057Z,359
2022-11-02T08:10:10.923Z,355
2022-11-02T08:11:10.113Z,359
2022-11-02T08:12:10.553Z,366
2022-11-02T08:13:10.223Z,357
2022-11-02T08:14:10.553Z,348
2022-11-02T08:15:10.591Z,354
2022-11-02T08:16:10.059Z,366
2022-11-02T08:17:10.221Z,364
2022-11-02T08:18:10.269Z,368
2022-11-02T08:19:10.274Z,362
2022-11-02T08:20:10.745Z,359
2022-11-02T08:21:09.482Z,357
2022-11-02T08:22:09.927Z,356
2022-11-02T08:23:10.121Z,350
2022-11-02T08:24:10.303Z,355
2022-11-02T08:25:10.909Z,358
2022-11-02T08:26:10.439Z,364
2022-11-02T08:27:10.249Z,360
2022-11-02T08:29:10.166Z,363
2022-11-02T08:30:10.405Z,366
2022-11-02T08:31:10.090Z,368
2022-11-02T08:32:10.450Z,361
2022-11-02T08:33:10.121Z,362
2022-11-02T08:34:10.771Z,365
2022-11-02T08:35:09.932Z,364
2022-11-02T08:36:10.032Z,370
2022-11-02T08:37:10.009Z,367
2022-11-02T08:38:10.136Z,364
2022-11-02T08:39:13.371Z,360
2022-11-02T08:40:10.251Z,355
2022-11-02T08:41:10.192Z,354
2022-11-02T08:42:10.478Z,341
2022-11-02T08:43:09.791Z,349
2022-11-02T08:44:09.827Z,382
2022-11-02T08:45:10.121Z,357
2022-11-02T08:46:15.541Z,342
2022-11-02T08:47:10.140Z,341
2022-11-02T08:48:10.200Z,344
2022-11-02T08:49:10.201Z,352
2022-11-02T08:50:10.434Z,359
2022-11-02T08:51:10.614Z,360
2022-11-02T08:52:10.076Z,359
2022-11-02T08:53:10.224Z,366
2022-11-02T08:54:10.393Z,363
2022-11-02T08:55:09.602Z,357
2022-11-02T08:56:09.797Z,356
2022-11-02T08:57:10.044Z,355
2022-11-02T08:58:10.193Z,358
2022-11-02T08:59:10.460Z,349
2022-11-02T09:00:10.431Z,355
2022-11-02T09:01:10.165Z,350
2022-11-02T09:02:10.137Z,355
2022-11-02T09:03:09.971Z,358
2022-11-02T09:05:10.701Z,373
2022-11-02T09:06:10.182Z,361
2022-11-02T09:07:10.057Z,359
2022-11-02T09:09:10.531Z,356
2022-11-02T09:10:10.692Z,353
2022-11-02T09:11:09.795Z,348
2022-11-02T09:12:10.034Z,354
2022-11-02T09:13:10.416Z,364
2022-11-02T09:14:09.913Z,355
2022-11-02T09:15:10.345Z,362
2022-11-02T09:16:10.013Z,354
2022-11-02T09:17:10.213Z,350
2022-11-02T09:18:10.360Z,345
2022-11-02T09:19:10.503Z,349
2022-11-02T09:20:10.019Z,357
2022-11-02T09:21:10.099Z,350
2022-11-02T09:22:09.934Z,349
2022-11-02T09:23:09.982Z,331
2022-11-02T09:24:10.705Z,348
2022-11-02T09:25:10.319Z,350
2022-11-02T09:26:10.555Z,345
2022-11-02T09:27:10.273Z,355
2022-11-02T09:28:10.502Z,357
2022-11-02T09:29:10.222Z,342
2022-11-02T09:30:10.748Z,347
2022-11-02T09:31:11.683Z,360
2022-11-02T09:33:09.734Z,353
2022-11-02T09:34:09.732Z,344
2022-11-02T09:35:09.996Z,342
2022-11-02T09:36:10.449Z,355
2022-11-02T09:38:10.014Z,356
2022-11-02T09:39:10.176Z,349
2022-11-02T09:40:11.579Z,370
2022-11-02T09:42:10.988Z,354
2022-11-02T09:43:11.018Z,343
2022-11-02T09:44:10.289Z,344
2022-11-02T09:45:10.126Z,338
2022-11-02T09:46:10.658Z,341
2022-11-02T09:48:18.639Z,336
2022-11-02T09:49:10.727Z,339
2022-11-02T09:50:10.481Z,345
2022-11-02T09:51:10.126Z,346
2022-11-02T09:52:10.885Z,345
2022-11-02T09:53:10.366Z,349
2022-11-02T09:54:14.663Z,345
2022-11-02T09:56:10.295Z,349
2022-11-02T09:57:10.472Z,344
2022-11-02T09:58:10.130Z,350
2022-11-02T09:59:10.481Z,344
2022-11-02T10:00:10.618Z,346
2022-11-02T10:01:10.431Z,343
2022-11-02T10:02:10.446Z,337
2022-11-02T10:03:10.205Z,351
2022-11-02T10:04:10.374Z,359
2022-11-02T10:05:10.747Z,344
2022-11-02T10:06:10.272Z,338
2022-11-02T10:07:10.393Z,340
2022-11-02T10:08:09.976Z,338
2022-11-02T10:09:10.452Z,341
2022-11-02T10:10:10.079Z,336
2022-11-02T10:11:11.537Z,340
2022-11-02T10:12:10.680Z,337
2022-11-02T10:13:11.252Z,333
2022-11-02T10:14:11.321Z,336
2022-11-02T10:15:09.946Z,332
2022-11-02T10:16:11.251Z,344
2022-11-02T10:17:11.734Z,341
2022-11-02T10:18:10.707Z,344
2022-11-02T10:19:10.570Z,355
2022-11-02T10:20:10.722Z,348
2022-11-02T10:21:10.649Z,341
2022-11-02T10:22:11.625Z,340
2022-11-02T10:23:11.277Z,339
2022-11-02T10:24:11.236Z,338
2022-11-02T10:25:10.964Z,344
2022-11-02T10:26:11.284Z,339
2022-11-02T10:27:14.115Z,344
2022-11-02T10:28:10.619Z,340
2022-11-02T10:29:11.081Z,331
2022-11-02T10:30:11.696Z,332
2022-11-02T10:31:15.451Z,329
2022-11-02T10:32:11.023Z,338
2022-11-02T10:33:11.484Z,340
2022-11-02T10:34:10.478Z,331
2022-11-02T10:35:31.308Z,359
2022-11-02T10:36:18.072Z,343
2022-11-02T10:37:11.200Z,347
2022-11-02T10:38:14.916Z,351
2022-11-02T10:39:11.270Z,349
2022-11-02T10:40:11.765Z,336
2022-11-02T10:41:11.113Z,334
2022-11-02T10:42:11.230Z,352
2022-11-02T10:43:11.539Z,359
2022-11-02T10:44:10.593Z,341
2022-11-02T10:45:11.528Z,339
2022-11-02T10:47:11.285Z,335
2022-11-02T10:48:11.474Z,345
2022-11-02T10:50:12.396Z,352
2022-11-02T10:51:11.228Z,348
2022-11-02T10:52:11.111Z,343
2022-11-02T10:53:35.192Z,333
2022-11-02T10:55:11.239Z,336
2022-11-02T10:56:11.712Z,331
2022-11-02T10:57:10.963Z,337
2022-11-02T10:58:11.015Z,349
2022-11-02T10:59:11.016Z,351
2022-11-02T11:00:11.536Z,344
2022-11-02T11:01:10.982Z,346
2022-11-02T11:02:11.713Z,341
2022-11-02T11:03:11.492Z,335
2022-11-02T11:04:11.240Z,337
2022-11-02T11:05:11.476Z,343
2022-11-02T11:06:10.900Z,345
2022-11-02T11:07:11.636Z,330
2022-11-02T11:08:11.107Z,343
2022-11-02T11:09:11.717Z,340
2022-11-02T11:10:11.187Z,341
2022-11-02T11:11:11.397Z,356
2022-11-02T11:12:11.128Z,342
2022-11-02T11:19:40.467Z,339
2022-11-02T11:20:11.423Z,337
2022-11-02T11:21:11.623Z,334
2022-11-02T11:22:11.015Z,347
2022-11-02T11:23:11.295Z,332
2022-11-02T11:24:11.367Z,340
2022-11-02T11:25:11.045Z,342
2022-11-02T11:26:12.059Z,340
2022-11-02T11:27:11.685Z,341
2022-11-02T11:28:11.566Z,331
2022-11-02T11:29:11.779Z,349
2022-11-02T11:30:11.490Z,329
2022-11-02T11:31:11.758Z,338
2022-11-02T11:32:11.034Z,342
2022-11-02T11:33:11.264Z,352
2022-11-02T11:34:12.170Z,339
2022-11-02T11:36:11.846Z,335
2022-11-02T11:37:12.167Z,337
2022-11-02T11:38:11.914Z,341
2022-11-02T11:39:12.498Z,353
2022-11-02T11:40:12.410Z,342
2022-11-02T11:41:12.429Z,344
2022-11-02T11:42:11.575Z,336
2022-11-02T11:43:11.335Z,338
2022-11-02T11:44:11.979Z,346
2022-11-02T11:45:11.123Z,340
2022-11-02T11:46:11.132Z,322
2022-11-02T11:47:11.649Z,355
2022-11-02T11:48:11.178Z,353
2022-11-02T11:49:11.538Z,349
2022-11-02T11:50:22.800Z,355
2022-11-02T11:51:11.511Z,353
2022-11-02T11:52:10.459Z,346
2022-11-02T11:53:12.079Z,353
2022-11-02T11:54:11.244Z,350
2022-11-02T11:55:11.817Z,352
2022-11-02T11:56:11.543Z,348
2022-11-02T11:57:11.852Z,345
2022-11-02T11:58:11.637Z,349
2022-11-02T11:59:11.902Z,339
2022-11-02T12:00:11.955Z,347
2022-11-02T12:01:11.270Z,355
2022-11-02T12:02:11.547Z,342
2022-11-02T12:03:11.198Z,340
2022-11-02T12:04:11.297Z,348
2022-11-02T12:05:11.584Z,342
2022-11-02T12:06:11.118Z,344
2022-11-02T12:07:11.493Z,350
2022-11-02T12:08:11.752Z,340
2022-11-02T12:09:10.606Z,335
2022-11-02T12:10:11.957Z,337
2022-11-02T12:11:14.930Z,333
2022-11-02T12:12:11.825Z,341
2022-11-02T12:13:11.968Z,342
2022-11-02T12:14:11.690Z,339
2022-11-02T12:15:11.640Z,335
2022-11-02T12:16:11.697Z,340
2022-11-02T12:17:10.979Z,347
2022-11-02T12:18:11.289Z,346
2022-11-02T12:19:10.908Z,340
2022-11-02T12:20:11.282Z,344
2022-11-02T12:21:11.312Z,349
2022-11-02T12:22:11.496Z,337
2022-11-02T12:23:10.696Z,346
2022-11-02T12:24:11.758Z,345
2022-11-02T12:25:11.127Z,336
2022-11-02T12:26:10.706Z,344
2022-11-02T12:27:11.160Z,339
2022-11-02T12:28:10.709Z,329
2022-11-02T12:29:11.399Z,331
2022-11-02T12:30:11.657Z,340
2022-11-02T12:31:11.249Z,343
2022-11-02T12:32:11.457Z,347
2022-11-02T12:33:10.462Z,346
2022-11-02T12:34:11.056Z,336
2022-11-02T12:35:29.535Z,342
2022-11-02T12:36:11.548Z,339
2022-11-02T12:37:37.170Z,320
2022-11-02T12:38:10.613Z,364
2022-11-02T12:39:11.582Z,334
2022-11-02T12:40:10.968Z,349
2022-11-02T12:41:10.696Z,348
2022-11-02T12:42:11.492Z,339
2022-11-02T12:43:11.259Z,331
2022-11-02T12:44:11.296Z,339
2022-11-02T12:45:10.883Z,347
2022-11-02T12:46:10.840Z,345
2022-11-02T12:47:10.365Z,342
2022-11-02T12:48:11.052Z,338
2022-11-02T12:49:10.590Z,331
2022-11-02T12:50:11.170Z,333
2022-11-02T12:53:11.197Z,327
2022-11-02T12:54:11.090Z,333
2022-11-02T12:55:13.246Z,339
2022-11-02T12:56:18.477Z,331
2022-11-02T12:57:11.353Z,338
2022-11-02T12:58:10.099Z,326
2022-11-02T12:59:10.529Z,321
2022-11-02T13:00:19.397Z,325
2022-11-02T13:01:13.669Z,324
2022-11-02T13:02:24.617Z,339
2022-11-02T13:03:10.662Z,344
2022-11-02T13:04:10.731Z,339
2022-11-02T13:05:11.515Z,322
2022-11-02T13:06:10.798Z,330
2022-11-02T13:07:10.635Z,337
2022-11-02T13:08:10.631Z,338
2022-11-02T13:09:11.106Z,337
2022-11-02T13:10:11.329Z,334
2022-11-02T13:11:11.200Z,333
2022-11-02T13:12:10.641Z,331
2022-11-02T13:13:10.557Z,346
2022-11-02T13:14:15.101Z,350
2022-11-02T13:15:12.209Z,333
2022-11-02T13:16:10.610Z,326
2022-11-02T13:17:10.846Z,323
2022-11-02T13:18:10.658Z,322
2022-11-02T13:19:10.301Z,325
2022-11-02T13:20:10.970Z,326
2022-11-02T13:21:10.818Z,329
2022-11-02T13:22:29.135Z,337
2022-11-02T13:23:10.182Z,333
2022-11-02T13:24:10.366Z,322
2022-11-02T13:25:10.297Z,325
2022-11-02T13:26:10.085Z,339
2022-11-02T13:27:22.045Z,348
2022-11-02T13:28:10.645Z,354
2022-11-02T13:29:10.555Z,321
2022-11-02T13:30:10.341Z,367
2022-11-02T13:31:13.016Z,331
2022-11-02T13:32:10.256Z,328
2022-11-02T13:33:10.222Z,335
2022-11-02T13:34:11.316Z,339
2022-11-02T13:35:11.144Z,345
2022-11-02T13:37:10.883Z,338
2022-11-02T13:38:11.061Z,339
2022-11-02T13:39:10.357Z,331
2022-11-02T13:40:10.618Z,329
2022-11-02T13:41:10.657Z,333
2022-11-02T13:42:10.599Z,349
2022-11-02T13:43:10.803Z,354
2022-11-02T13:44:10.460Z,347
2022-11-02T13:45:15.223Z,335
2022-11-02T13:46:10.523Z,330
2022-11-02T13:47:10.431Z,355
2022-11-02T13:48:10.173Z,335
2022-11-02T13:49:10.186Z,337
2022-11-02T13:50:10.999Z,338
2022-11-02T13:51:10.975Z,339
2022-11-02T13:52:14.006Z,346
2022-11-02T13:54:11.073Z,345
2022-11-02T13:58:10.562Z,338
2022-11-02T13:59:10.265Z,343
2022-11-02T14:00:11.428Z,337
2022-11-02T14:01:11.081Z,328
2022-11-02T14:02:09.752Z,332
2022-11-02T14:03:11.289Z,333
2022-11-02T14:04:10.631Z,329
2022-11-02T14:05:11.099Z,318
2022-11-02T14:06:11.227Z,342
2022-11-02T14:07:10.491Z,344
2022-11-02T14:08:10.740Z,328
2022-11-02T14:09:11.336Z,332
2022-11-02T14:10:11.282Z,336
2022-11-02T14:11:10.675Z,341
2022-11-02T14:12:10.447Z,330
2022-11-02T14:13:10.631Z,341
2022-11-02T14:14:10.413Z,345
2022-11-02T14:15:09.947Z,342
2022-11-02T14:18:10.576Z,346
2022-11-02T14:19:11.101Z,343
2022-11-02T14:20:09.767Z,342
2022-11-02T14:21:10.159Z,351
2022-11-02T14:22:10.366Z,317
2022-11-02T14:23:09.898Z,324
2022-11-02T14:24:10.074Z,330
2022-11-02T14:25:10.328Z,336
2022-11-02T14:26:09.967Z,340
2022-11-02T14:27:10.335Z,339
2022-11-02T14:28:10.093Z,324
2022-11-02T14:30:10.001Z,331
2022-11-02T14:32:10.421Z,333
2022-11-02T14:33:09.891Z,348
2022-11-02T14:34:10.226Z,337
2022-11-02T14:36:10.243Z,329
2022-11-02T14:37:10.268Z,332
2022-11-02T14:38:10.902Z,343
2022-11-02T14:39:10.375Z,353
2022-11-02T14:40:10.756Z,342
2022-11-02T14:41:10.095Z,330
2022-11-02T14:42:10.448Z,333
2022-11-02T14:43:10.906Z,332
2022-11-02T14:44:10.609Z,326
2022-11-02T14:45:10.094Z,322
2022-11-02T14:46:10.481Z,331
2022-11-02T14:47:09.863Z,342